sensor_id;sensor_type;location;lat;lon;timestamp;temperature;humidity
26212;DHT22;13951;49.516;6.094;2023-01-28T00:00:44;2.90;99.90
26212;DHT22;13951;49.516;6.094;2023-01-28T00:03:37;2.90;99.90
26212;DHT22;13951;49.516;6.094;2023-01-28T00:06:30;2.90;99.90
26212;DHT22;13951;49.516;6.094;2023-01-28T00:09:23;2.90;99.90
26212;DHT22;13951;49.516;6.094;2023-01-28T00:12:16;2.90;99.90
26212;DHT22;13951;49.516;6.094;2023-01-28T00:15:09;2.90;99.90
26212;DHT22;13951;49.516;6.094;2023-01-28T00:18:03;2.90;99.90
26212;DHT22;13951;49.516;6.094;2023-01-28T00:20:57;2.90;99.90
26212;DHT22;13951;49.516;6.094;2023-01-28T00:23:53;2.90;99.90
26212;DHT22;13951;49.516;6.094;2023-01-28T00:26:46;2.90;99.90
26212;DHT22;13951;49.516;6.094;2023-01-28T00:29:39;2.90;99.90
26212;DHT22;13951;49.516;6.094;2023-01-28T00:32:32;2.90;99.90
26212;DHT22;13951;49.516;6.094;2023-01-28T00:35:25;2.90;99.90
26212;DHT22;13951;49.516;6.094;2023-01-28T00:38:17;2.90;99.90
26212;DHT22;13951;49.516;6.094;2023-01-28T00:41:16;2.90;99.90
26212;DHT22;13951;49.516;6.094;2023-01-28T00:44:09;2.80;99.90
26212;DHT22;13951;49.516;6.094;2023-01-28T00:47:02;2.80;99.90
26212;DHT22;13951;49.516;6.094;2023-01-28T00:49:55;2.80;99.90
26212;DHT22;13951;49.516;6.094;2023-01-28T00:52:48;2.80;99.90
26212;DHT22;13951;49.516;6.094;2023-01-28T00:55:42;2.80;99.90
26212;DHT22;13951;49.516;6.094;2023-01-28T00:58:35;2.80;99.90
26212;DHT22;13951;49.516;6.094;2023-01-28T01:01:28;2.80;99.90
26212;DHT22;13951;49.516;6.094;2023-01-28T01:04:21;2.90;99.90
26212;DHT22;13951;49.516;6.094;2023-01-28T01:07:18;2.90;99.90
26212;DHT22;13951;49.516;6.094;2023-01-28T01:10:15;2.90;99.90
26212;DHT22;13951;49.516;6.094;2023-01-28T01:13:08;2.90;99.90
26212;DHT22;13951;49.516;6.094;2023-01-28T01:16:07;2.90;99.90
26212;DHT22;13951;49.516;6.094;2023-01-28T01:19:01;2.90;99.90
26212;DHT22;13951;49.516;6.094;2023-01-28T01:21:55;2.80;99.90
26212;DHT22;13951;49.516;6.094;2023-01-28T01:24:49;2.90;99.90
26212;DHT22;13951;49.516;6.094;2023-01-28T01:27:42;2.90;99.90
26212;DHT22;13951;49.516;6.094;2023-01-28T01:30:36;2.90;99.90
26212;DHT22;13951;49.516;6.094;2023-01-28T01:33:29;2.90;99.90
26212;DHT22;13951;49.516;6.094;2023-01-28T01:36:23;2.90;99.90
26212;DHT22;13951;49.516;6.094;2023-01-28T01:39:16;2.90;99.90
26212;DHT22;13951;49.516;6.094;2023-01-28T01:42:11;2.90;99.90
26212;DHT22;13951;49.516;6.094;2023-01-28T01:45:11;2.80;99.90
26212;DHT22;13951;49.516;6.094;2023-01-28T01:51:15;2.80;99.90
26212;DHT22;13951;49.516;6.094;2023-01-28T01:54:09;2.80;99.90
26212;DHT22;13951;49.516;6.094;2023-01-28T01:57:03;2.80;99.90
26212;DHT22;13951;49.516;6.094;2023-01-28T01:59:59;2.80;99.90
26212;DHT22;13951;49.516;6.094;2023-01-28T02:03:05;2.80;99.90
26212;DHT22;13951;49.516;6.094;2023-01-28T02:05:58;2.80;99.90
26212;DHT22;13951;49.516;6.094;2023-01-28T02:08:55;2.80;99.90
26212;DHT22;13951;49.516;6.094;2023-01-28T02:11:48;2.80;99.90
26212;DHT22;13951;49.516;6.094;2023-01-28T02:14:49;2.80;99.90
26212;DHT22;13951;49.516;6.094;2023-01-28T02:17:44;2.90;99.90
26212;DHT22;13951;49.516;6.094;2023-01-28T02:24:32;2.90;99.90
26212;DHT22;13951;49.516;6.094;2023-01-28T02:34:04;2.80;99.90
26212;DHT22;13951;49.516;6.094;2023-01-28T02:37:08;2.80;99.90
26212;DHT22;13951;49.516;6.094;2023-01-28T02:40:12;2.80;99.90
26212;DHT22;13951;49.516;6.094;2023-01-28T02:43:06;2.80;99.90
26212;DHT22;13951;49.516;6.094;2023-01-28T02:45:59;2.80;99.90
26212;DHT22;13951;49.516;6.094;2023-01-28T02:50:06;2.80;99.90
26212;DHT22;13951;49.516;6.094;2023-01-28T02:53:18;2.80;99.90
26212;DHT22;13951;49.516;6.094;2023-01-28T02:56:53;2.80;99.90
26212;DHT22;13951;49.516;6.094;2023-01-28T02:59:53;2.70;99.90
26212;DHT22;13951;49.516;6.094;2023-01-28T03:03:14;2.70;99.90
26212;DHT22;13951;49.516;6.094;2023-01-28T03:06:12;2.70;99.90
26212;DHT22;13951;49.516;6.094;2023-01-28T03:09:10;2.70;99.90
26212;DHT22;13951;49.516;6.094;2023-01-28T03:12:21;2.70;99.90
26212;DHT22;13951;49.516;6.094;2023-01-28T03:15:38;2.80;99.90
26212;DHT22;13951;49.516;6.094;2023-01-28T03:18:51;2.80;99.90
26212;DHT22;13951;49.516;6.094;2023-01-28T03:22:04;2.80;99.90
26212;DHT22;13951;49.516;6.094;2023-01-28T03:25:17;2.80;99.90
26212;DHT22;13951;49.516;6.094;2023-01-28T03:28:32;2.80;99.90
26212;DHT22;13951;49.516;6.094;2023-01-28T03:31:44;2.80;99.90
26212;DHT22;13951;49.516;6.094;2023-01-28T03:34:56;2.80;99.90
26212;DHT22;13951;49.516;6.094;2023-01-28T03:38:08;2.80;99.90
26212;DHT22;13951;49.516;6.094;2023-01-28T03:41:23;2.80;99.90
26212;DHT22;13951;49.516;6.094;2023-01-28T03:44:18;2.80;99.90
26212;DHT22;13951;49.516;6.094;2023-01-28T03:47:30;2.80;99.90
26212;DHT22;13951;49.516;6.094;2023-01-28T03:50:25;2.80;99.90
26212;DHT22;13951;49.516;6.094;2023-01-28T03:53:22;2.80;99.90
26212;DHT22;13951;49.516;6.094;2023-01-28T03:56:16;2.80;99.90
26212;DHT22;13951;49.516;6.094;2023-01-28T03:59:10;2.80;99.90
26212;DHT22;13951;49.516;6.094;2023-01-28T04:02:03;2.80;99.90
26212;DHT22;13951;49.516;6.094;2023-01-28T04:04:57;2.70;99.90
26212;DHT22;13951;49.516;6.094;2023-01-28T04:07:54;2.70;99.90
26212;DHT22;13951;49.516;6.094;2023-01-28T04:11:23;2.70;99.90
26212;DHT22;13951;49.516;6.094;2023-01-28T04:14:18;2.70;99.90
26212;DHT22;13951;49.516;6.094;2023-01-28T04:17:30;2.70;99.90
26212;DHT22;13951;49.516;6.094;2023-01-28T04:20:23;2.60;99.90
26212;DHT22;13951;49.516;6.094;2023-01-28T04:23:16;2.60;99.90
26212;DHT22;13951;49.516;6.094;2023-01-28T04:26:09;2.60;99.90
26212;DHT22;13951;49.516;6.094;2023-01-28T04:29:02;2.60;99.90
26212;DHT22;13951;49.516;6.094;2023-01-28T04:31:58;2.60;99.90
26212;DHT22;13951;49.516;6.094;2023-01-28T04:35:02;2.60;99.90
26212;DHT22;13951;49.516;6.094;2023-01-28T04:38:13;2.60;99.90
26212;DHT22;13951;49.516;6.094;2023-01-28T04:41:26;2.60;99.90
26212;DHT22;13951;49.516;6.094;2023-01-28T04:44:23;2.60;99.90
26212;DHT22;13951;49.516;6.094;2023-01-28T04:47:40;2.60;99.90
26212;DHT22;13951;49.516;6.094;2023-01-28T04:50:54;2.60;99.90
26212;DHT22;13951;49.516;6.094;2023-01-28T04:54:00;2.60;99.90
26212;DHT22;13951;49.516;6.094;2023-01-28T04:56:58;2.60;99.90
26212;DHT22;13951;49.516;6.094;2023-01-28T04:59:51;2.60;99.90
26212;DHT22;13951;49.516;6.094;2023-01-28T05:02:44;2.60;99.90
26212;DHT22;13951;49.516;6.094;2023-01-28T05:05:37;2.60;99.90
26212;DHT22;13951;49.516;6.094;2023-01-28T05:08:47;2.70;99.90
26212;DHT22;13951;49.516;6.094;2023-01-28T05:11:41;2.70;99.90
26212;DHT22;13951;49.516;6.094;2023-01-28T05:14:34;2.70;99.90
26212;DHT22;13951;49.516;6.094;2023-01-28T05:17:31;2.70;99.90
26212;DHT22;13951;49.516;6.094;2023-01-28T05:20:24;2.70;99.90
26212;DHT22;13951;49.516;6.094;2023-01-28T05:23:18;2.70;99.90
26212;DHT22;13951;49.516;6.094;2023-01-28T05:26:16;2.70;99.90
26212;DHT22;13951;49.516;6.094;2023-01-28T05:29:10;2.70;99.90
26212;DHT22;13951;49.516;6.094;2023-01-28T05:32:04;2.70;99.90
26212;DHT22;13951;49.516;6.094;2023-01-28T05:34:57;2.70;99.90
26212;DHT22;13951;49.516;6.094;2023-01-28T05:37:50;2.70;99.90
26212;DHT22;13951;49.516;6.094;2023-01-28T05:40:44;2.70;99.90
26212;DHT22;13951;49.516;6.094;2023-01-28T05:43:38;2.60;99.90
26212;DHT22;13951;49.516;6.094;2023-01-28T05:46:40;2.60;99.90
26212;DHT22;13951;49.516;6.094;2023-01-28T05:50:03;2.60;99.90
26212;DHT22;13951;49.516;6.094;2023-01-28T05:53:07;2.60;99.90
26212;DHT22;13951;49.516;6.094;2023-01-28T05:56:02;2.60;99.90
26212;DHT22;13951;49.516;6.094;2023-01-28T05:58:57;2.60;99.90
26212;DHT22;13951;49.516;6.094;2023-01-28T06:01:50;2.60;99.90
26212;DHT22;13951;49.516;6.094;2023-01-28T06:04:46;2.60;99.90
26212;DHT22;13951;49.516;6.094;2023-01-28T06:07:39;2.60;99.90
26212;DHT22;13951;49.516;6.094;2023-01-28T06:10:35;2.60;99.90
26212;DHT22;13951;49.516;6.094;2023-01-28T06:13:29;2.60;99.90
26212;DHT22;13951;49.516;6.094;2023-01-28T06:16:40;2.60;99.90
26212;DHT22;13951;49.516;6.094;2023-01-28T06:19:50;2.60;99.90
26212;DHT22;13951;49.516;6.094;2023-01-28T06:22:43;2.60;99.90
26212;DHT22;13951;49.516;6.094;2023-01-28T06:25:36;2.60;99.90
26212;DHT22;13951;49.516;6.094;2023-01-28T06:28:34;2.60;99.90
26212;DHT22;13951;49.516;6.094;2023-01-28T06:31:27;2.60;99.90
26212;DHT22;13951;49.516;6.094;2023-01-28T06:34:20;2.60;99.90
26212;DHT22;13951;49.516;6.094;2023-01-28T06:37:14;2.60;99.90
26212;DHT22;13951;49.516;6.094;2023-01-28T06:40:07;2.60;99.90
26212;DHT22;13951;49.516;6.094;2023-01-28T06:43:00;2.60;99.90
26212;DHT22;13951;49.516;6.094;2023-01-28T06:45:54;2.60;99.90
26212;DHT22;13951;49.516;6.094;2023-01-28T06:48:47;2.60;99.90
26212;DHT22;13951;49.516;6.094;2023-01-28T06:51:40;2.60;99.90
26212;DHT22;13951;49.516;6.094;2023-01-28T06:54:33;2.60;99.90
26212;DHT22;13951;49.516;6.094;2023-01-28T06:57:26;2.60;99.90
26212;DHT22;13951;49.516;6.094;2023-01-28T07:00:19;2.60;99.90
26212;DHT22;13951;49.516;6.094;2023-01-28T07:03:12;2.50;99.90
26212;DHT22;13951;49.516;6.094;2023-01-28T07:06:05;2.50;99.90
26212;DHT22;13951;49.516;6.094;2023-01-28T07:08:58;2.50;99.90
26212;DHT22;13951;49.516;6.094;2023-01-28T07:11:51;2.50;99.90
26212;DHT22;13951;49.516;6.094;2023-01-28T07:14:44;2.50;99.90
26212;DHT22;13951;49.516;6.094;2023-01-28T07:20:55;2.50;99.90
26212;DHT22;13951;49.516;6.094;2023-01-28T07:23:48;2.50;99.90
26212;DHT22;13951;49.516;6.094;2023-01-28T07:26:41;2.50;99.90
26212;DHT22;13951;49.516;6.094;2023-01-28T07:29:34;2.50;99.90
26212;DHT22;13951;49.516;6.094;2023-01-28T07:32:27;2.60;99.90
26212;DHT22;13951;49.516;6.094;2023-01-28T07:35:21;2.60;99.90
26212;DHT22;13951;49.516;6.094;2023-01-28T07:38:14;2.60;99.90
26212;DHT22;13951;49.516;6.094;2023-01-28T07:41:07;2.60;99.90
26212;DHT22;13951;49.516;6.094;2023-01-28T07:44:01;2.60;99.90
26212;DHT22;13951;49.516;6.094;2023-01-28T07:46:54;2.60;99.90
26212;DHT22;13951;49.516;6.094;2023-01-28T07:49:47;2.60;99.90
26212;DHT22;13951;49.516;6.094;2023-01-28T07:52:40;2.60;99.90
26212;DHT22;13951;49.516;6.094;2023-01-28T07:55:37;2.60;99.90
26212;DHT22;13951;49.516;6.094;2023-01-28T07:58:31;2.70;99.90
26212;DHT22;13951;49.516;6.094;2023-01-28T08:01:26;2.70;99.90
26212;DHT22;13951;49.516;6.094;2023-01-28T08:04:19;2.80;99.90
26212;DHT22;13951;49.516;6.094;2023-01-28T08:07:13;2.80;99.90
26212;DHT22;13951;49.516;6.094;2023-01-28T08:10:06;2.80;99.90
26212;DHT22;13951;49.516;6.094;2023-01-28T08:12:59;2.90;99.90
26212;DHT22;13951;49.516;6.094;2023-01-28T08:15:54;3.00;99.90
26212;DHT22;13951;49.516;6.094;2023-01-28T08:18:48;3.10;99.90
26212;DHT22;13951;49.516;6.094;2023-01-28T08:21:41;3.20;99.90
26212;DHT22;13951;49.516;6.094;2023-01-28T08:24:33;3.20;99.90
26212;DHT22;13951;49.516;6.094;2023-01-28T08:27:26;3.20;99.90
26212;DHT22;13951;49.516;6.094;2023-01-28T08:30:19;3.10;99.90
26212;DHT22;13951;49.516;6.094;2023-01-28T08:33:17;3.00;99.90
26212;DHT22;13951;49.516;6.094;2023-01-28T08:36:10;2.90;99.90
26212;DHT22;13951;49.516;6.094;2023-01-28T08:39:03;2.90;99.90
26212;DHT22;13951;49.516;6.094;2023-01-28T08:41:57;2.90;99.90
26212;DHT22;13951;49.516;6.094;2023-01-28T08:44:50;2.90;99.90
26212;DHT22;13951;49.516;6.094;2023-01-28T08:47:51;2.90;99.90
26212;DHT22;13951;49.516;6.094;2023-01-28T08:50:45;2.90;99.90
26212;DHT22;13951;49.516;6.094;2023-01-28T08:53:38;2.80;99.90
26212;DHT22;13951;49.516;6.094;2023-01-28T08:56:31;2.80;99.90
26212;DHT22;13951;49.516;6.094;2023-01-28T08:59:24;2.70;99.90
26212;DHT22;13951;49.516;6.094;2023-01-28T09:02:17;2.70;99.90
26212;DHT22;13951;49.516;6.094;2023-01-28T09:05:23;2.60;99.90
26212;DHT22;13951;49.516;6.094;2023-01-28T09:08:16;2.70;99.90
26212;DHT22;13951;49.516;6.094;2023-01-28T09:11:09;2.60;99.90
26212;DHT22;13951;49.516;6.094;2023-01-28T09:14:02;2.70;99.90
26212;DHT22;13951;49.516;6.094;2023-01-28T09:16:55;2.60;99.90
26212;DHT22;13951;49.516;6.094;2023-01-28T09:19:49;2.60;99.90
26212;DHT22;13951;49.516;6.094;2023-01-28T09:22:42;2.60;99.90
26212;DHT22;13951;49.516;6.094;2023-01-28T09:25:35;2.70;99.90
26212;DHT22;13951;49.516;6.094;2023-01-28T09:28:28;2.70;99.90
26212;DHT22;13951;49.516;6.094;2023-01-28T09:31:22;2.80;99.90
26212;DHT22;13951;49.516;6.094;2023-01-28T09:34:15;2.80;99.90
26212;DHT22;13951;49.516;6.094;2023-01-28T09:37:09;2.70;99.90
26212;DHT22;13951;49.516;6.094;2023-01-28T09:40:03;2.70;99.90
26212;DHT22;13951;49.516;6.094;2023-01-28T09:46:12;2.80;99.90
26212;DHT22;13951;49.516;6.094;2023-01-28T09:49:27;2.80;99.90
26212;DHT22;13951;49.516;6.094;2023-01-28T09:52:24;2.80;99.90
26212;DHT22;13951;49.516;6.094;2023-01-28T09:55:24;2.80;99.90
26212;DHT22;13951;49.516;6.094;2023-01-28T09:58:21;2.80;99.90
26212;DHT22;13951;49.516;6.094;2023-01-28T10:01:40;2.90;99.90
26212;DHT22;13951;49.516;6.094;2023-01-28T10:08:16;3.00;99.90
26212;DHT22;13951;49.516;6.094;2023-01-28T10:17:47;3.20;99.90
26212;DHT22;13951;49.516;6.094;2023-01-28T10:21:07;3.30;99.90
26212;DHT22;13951;49.516;6.094;2023-01-28T10:24:33;3.30;99.90
26212;DHT22;13951;49.516;6.094;2023-01-28T10:27:30;3.30;99.90
26212;DHT22;13951;49.516;6.094;2023-01-28T10:30:27;3.40;99.90
26212;DHT22;13951;49.516;6.094;2023-01-28T10:33:36;3.40;99.90
26212;DHT22;13951;49.516;6.094;2023-01-28T10:36:29;3.40;99.90
26212;DHT22;13951;49.516;6.094;2023-01-28T10:39:24;3.40;99.90
26212;DHT22;13951;49.516;6.094;2023-01-28T10:45:22;3.30;99.90
26212;DHT22;13951;49.516;6.094;2023-01-28T10:48:41;3.30;99.90
26212;DHT22;13951;49.516;6.094;2023-01-28T10:51:39;3.40;99.90
26212;DHT22;13951;49.516;6.094;2023-01-28T10:54:34;3.40;99.90
26212;DHT22;13951;49.516;6.094;2023-01-28T10:57:28;3.50;99.90
26212;DHT22;13951;49.516;6.094;2023-01-28T11:03:20;3.40;99.90
26212;DHT22;13951;49.516;6.094;2023-01-28T11:06:27;3.30;99.90
26212;DHT22;13951;49.516;6.094;2023-01-28T11:09:25;3.30;99.90
26212;DHT22;13951;49.516;6.094;2023-01-28T11:12:21;3.20;99.90
26212;DHT22;13951;49.516;6.094;2023-01-28T11:15:17;3.20;99.90
26212;DHT22;13951;49.516;6.094;2023-01-28T11:18:26;3.10;99.90
26212;DHT22;13951;49.516;6.094;2023-01-28T11:21:24;3.10;99.90
26212;DHT22;13951;49.516;6.094;2023-01-28T11:24:22;3.10;99.90
26212;DHT22;13951;49.516;6.094;2023-01-28T11:27:17;3.10;99.90
26212;DHT22;13951;49.516;6.094;2023-01-28T11:30:23;3.10;99.90
26212;DHT22;13951;49.516;6.094;2023-01-28T11:33:21;3.00;99.90
26212;DHT22;13951;49.516;6.094;2023-01-28T11:36:27;3.00;99.90
26212;DHT22;13951;49.516;6.094;2023-01-28T11:39:22;3.00;99.90
26212;DHT22;13951;49.516;6.094;2023-01-28T11:42:20;3.00;99.90
26212;DHT22;13951;49.516;6.094;2023-01-28T11:45:23;3.00;99.90
26212;DHT22;13951;49.516;6.094;2023-01-28T11:48:31;3.00;99.90
26212;DHT22;13951;49.516;6.094;2023-01-28T11:51:50;3.10;99.90
26212;DHT22;13951;49.516;6.094;2023-01-28T11:58:25;3.10;99.90
26212;DHT22;13951;49.516;6.094;2023-01-28T12:01:46;3.10;99.90
26212;DHT22;13951;49.516;6.094;2023-01-28T12:04:54;3.10;99.90
26212;DHT22;13951;49.516;6.094;2023-01-28T12:21:04;3.00;99.90
26212;DHT22;13951;49.516;6.094;2023-01-28T12:24:34;2.90;99.90
26212;DHT22;13951;49.516;6.094;2023-01-28T12:27:51;3.00;99.90
26212;DHT22;13951;49.516;6.094;2023-01-28T12:34:36;3.00;99.90
26212;DHT22;13951;49.516;6.094;2023-01-28T12:37:54;3.00;99.90
26212;DHT22;13951;49.516;6.094;2023-01-28T12:41:19;2.90;99.90
26212;DHT22;13951;49.516;6.094;2023-01-28T12:44:23;2.90;99.90
26212;DHT22;13951;49.516;6.094;2023-01-28T12:47:30;2.90;99.90
26212;DHT22;13951;49.516;6.094;2023-01-28T12:50:32;2.90;99.90
26212;DHT22;13951;49.516;6.094;2023-01-28T13:01:43;2.80;99.90
26212;DHT22;13951;49.516;6.094;2023-01-28T13:10:13;2.80;99.90
26212;DHT22;13951;49.516;6.094;2023-01-28T13:12:49;2.80;99.90
26212;DHT22;13951;49.516;6.094;2023-01-28T13:15:22;2.80;99.90
26212;DHT22;13951;49.516;6.094;2023-01-28T13:18:01;2.90;99.90
26212;DHT22;13951;49.516;6.094;2023-01-28T13:23:43;2.90;99.90
26212;DHT22;13951;49.516;6.094;2023-01-28T13:30:47;2.90;99.90
26212;DHT22;13951;49.516;6.094;2023-01-28T13:33:33;2.90;99.90
26212;DHT22;13951;49.516;6.094;2023-01-28T13:36:33;2.90;99.90
26212;DHT22;13951;49.516;6.094;2023-01-28T13:39:20;2.90;99.90
26212;DHT22;13951;49.516;6.094;2023-01-28T13:42:23;2.90;99.90
26212;DHT22;13951;49.516;6.094;2023-01-28T13:48:26;2.90;99.90
26212;DHT22;13951;49.516;6.094;2023-01-28T13:51:02;2.80;99.90
26212;DHT22;13951;49.516;6.094;2023-01-28T13:53:47;2.80;99.90
26212;DHT22;13951;49.516;6.094;2023-01-28T13:59:44;2.80;99.90
26212;DHT22;13951;49.516;6.094;2023-01-28T14:15:41;2.80;99.90
26212;DHT22;13951;49.516;6.094;2023-01-28T14:18:21;2.80;99.90
26212;DHT22;13951;49.516;6.094;2023-01-28T14:20:59;2.80;99.90
26212;DHT22;13951;49.516;6.094;2023-01-28T14:23:34;2.70;99.90
26212;DHT22;13951;49.516;6.094;2023-01-28T14:26:30;2.70;99.90
26212;DHT22;13951;49.516;6.094;2023-01-28T14:32:10;2.70;99.90
26212;DHT22;13951;49.516;6.094;2023-01-28T14:34:45;2.70;99.90
26212;DHT22;13951;49.516;6.094;2023-01-28T14:37:20;2.70;99.90
26212;DHT22;13951;49.516;6.094;2023-01-28T14:39:58;2.70;99.90
26212;DHT22;13951;49.516;6.094;2023-01-28T14:42:36;2.60;99.90
26212;DHT22;13951;49.516;6.094;2023-01-28T14:45:54;2.60;99.90
26212;DHT22;13951;49.516;6.094;2023-01-28T14:57:39;2.50;99.90
26212;DHT22;13951;49.516;6.094;2023-01-28T15:02:53;2.40;99.90
26212;DHT22;13951;49.516;6.094;2023-01-28T15:05:28;2.50;99.90
26212;DHT22;13951;49.516;6.094;2023-01-28T15:08:01;2.40;99.90
26212;DHT22;13951;49.516;6.094;2023-01-28T15:10:37;2.40;99.90
26212;DHT22;13951;49.516;6.094;2023-01-28T15:13:16;2.40;99.90
26212;DHT22;13951;49.516;6.094;2023-01-28T15:15:52;2.40;99.90
26212;DHT22;13951;49.516;6.094;2023-01-28T15:18:50;2.40;99.90
26212;DHT22;13951;49.516;6.094;2023-01-28T15:21:26;2.40;99.90
26212;DHT22;13951;49.516;6.094;2023-01-28T15:24:00;2.40;99.90
26212;DHT22;13951;49.516;6.094;2023-01-28T15:26:34;2.40;99.90
26212;DHT22;13951;49.516;6.094;2023-01-28T15:29:22;2.40;99.90
26212;DHT22;13951;49.516;6.094;2023-01-28T15:31:56;2.30;99.90
26212;DHT22;13951;49.516;6.094;2023-01-28T15:34:30;2.30;99.90
26212;DHT22;13951;49.516;6.094;2023-01-28T15:37:03;2.20;99.90
26212;DHT22;13951;49.516;6.094;2023-01-28T15:39:36;2.20;99.90
26212;DHT22;13951;49.516;6.094;2023-01-28T15:42:22;2.30;99.90
26212;DHT22;13951;49.516;6.094;2023-01-28T15:44:58;2.30;99.90
26212;DHT22;13951;49.516;6.094;2023-01-28T15:47:32;2.30;99.90
26212;DHT22;13951;49.516;6.094;2023-01-28T15:50:16;2.20;99.90
26212;DHT22;13951;49.516;6.094;2023-01-28T15:52:51;2.20;99.90
26212;DHT22;13951;49.516;6.094;2023-01-28T15:58:30;2.10;99.90
26212;DHT22;13951;49.516;6.094;2023-01-28T16:01:13;2.10;99.90
26212;DHT22;13951;49.516;6.094;2023-01-28T16:04:00;2.10;99.90
26212;DHT22;13951;49.516;6.094;2023-01-28T16:06:36;2.00;99.90
26212;DHT22;13951;49.516;6.094;2023-01-28T16:09:25;2.00;99.90
26212;DHT22;13951;49.516;6.094;2023-01-28T16:12:04;2.00;99.90
26212;DHT22;13951;49.516;6.094;2023-01-28T16:14:49;2.00;99.90
26212;DHT22;13951;49.516;6.094;2023-01-28T16:17:28;1.90;99.90
26212;DHT22;13951;49.516;6.094;2023-01-28T16:20:05;1.90;99.90
26212;DHT22;13951;49.516;6.094;2023-01-28T16:22:39;1.90;99.90
26212;DHT22;13951;49.516;6.094;2023-01-28T16:25:34;1.90;99.90
26212;DHT22;13951;49.516;6.094;2023-01-28T16:28:18;1.90;99.90
26212;DHT22;13951;49.516;6.094;2023-01-28T16:30:51;1.80;99.90
26212;DHT22;13951;49.516;6.094;2023-01-28T16:33:24;1.80;99.90
26212;DHT22;13951;49.516;6.094;2023-01-28T16:35:57;1.80;99.90
26212;DHT22;13951;49.516;6.094;2023-01-28T16:38:40;1.80;99.90
26212;DHT22;13951;49.516;6.094;2023-01-28T16:41:20;1.90;99.90
26212;DHT22;13951;49.516;6.094;2023-01-28T16:43:55;1.80;99.90
26212;DHT22;13951;49.516;6.094;2023-01-28T16:46:28;1.80;99.90
26212;DHT22;13951;49.516;6.094;2023-01-28T16:49:01;1.80;99.90
26212;DHT22;13951;49.516;6.094;2023-01-28T16:51:34;1.70;99.90
26212;DHT22;13951;49.516;6.094;2023-01-28T16:54:12;1.80;99.90
26212;DHT22;13951;49.516;6.094;2023-01-28T16:56:46;1.80;99.90
26212;DHT22;13951;49.516;6.094;2023-01-28T16:59:19;1.90;99.90
26212;DHT22;13951;49.516;6.094;2023-01-28T17:01:51;1.80;99.90
26212;DHT22;13951;49.516;6.094;2023-01-28T17:04:24;1.80;99.90
26212;DHT22;13951;49.516;6.094;2023-01-28T17:06:57;1.80;99.90
26212;DHT22;13951;49.516;6.094;2023-01-28T17:09:30;1.80;99.90
26212;DHT22;13951;49.516;6.094;2023-01-28T17:12:03;1.90;99.90
26212;DHT22;13951;49.516;6.094;2023-01-28T17:14:35;1.80;99.90
26212;DHT22;13951;49.516;6.094;2023-01-28T17:17:10;1.80;99.90
26212;DHT22;13951;49.516;6.094;2023-01-28T17:19:43;1.80;99.90
26212;DHT22;13951;49.516;6.094;2023-01-28T17:22:16;1.80;99.90
26212;DHT22;13951;49.516;6.094;2023-01-28T17:24:49;1.80;99.90
26212;DHT22;13951;49.516;6.094;2023-01-28T17:27:21;1.80;99.90
26212;DHT22;13951;49.516;6.094;2023-01-28T17:29:54;1.80;99.90
26212;DHT22;13951;49.516;6.094;2023-01-28T17:32:27;1.80;99.90
26212;DHT22;13951;49.516;6.094;2023-01-28T17:35:00;1.70;99.90
26212;DHT22;13951;49.516;6.094;2023-01-28T17:37:33;1.70;99.90
26212;DHT22;13951;49.516;6.094;2023-01-28T17:40:07;1.70;99.90
26212;DHT22;13951;49.516;6.094;2023-01-28T17:42:39;1.70;99.90
26212;DHT22;13951;49.516;6.094;2023-01-28T17:45:12;1.70;99.90
26212;DHT22;13951;49.516;6.094;2023-01-28T17:47:46;1.70;99.90
26212;DHT22;13951;49.516;6.094;2023-01-28T17:50:19;1.70;99.90
26212;DHT22;13951;49.516;6.094;2023-01-28T17:52:56;1.70;99.90
26212;DHT22;13951;49.516;6.094;2023-01-28T17:55:28;1.70;99.90
26212;DHT22;13951;49.516;6.094;2023-01-28T17:58:02;1.60;99.90
26212;DHT22;13951;49.516;6.094;2023-01-28T18:00:35;1.70;99.90
26212;DHT22;13951;49.516;6.094;2023-01-28T18:03:11;1.70;99.90
26212;DHT22;13951;49.516;6.094;2023-01-28T18:05:44;1.70;99.90
26212;DHT22;13951;49.516;6.094;2023-01-28T18:08:27;1.80;99.90
26212;DHT22;13951;49.516;6.094;2023-01-28T18:11:00;1.80;99.90
26212;DHT22;13951;49.516;6.094;2023-01-28T18:13:39;1.70;99.90
26212;DHT22;13951;49.516;6.094;2023-01-28T18:16:14;1.70;99.90
26212;DHT22;13951;49.516;6.094;2023-01-28T18:18:48;1.70;99.90
26212;DHT22;13951;49.516;6.094;2023-01-28T18:21:35;1.60;99.90
26212;DHT22;13951;49.516;6.094;2023-01-28T18:24:26;1.60;99.90
26212;DHT22;13951;49.516;6.094;2023-01-28T18:27:00;1.60;99.90
26212;DHT22;13951;49.516;6.094;2023-01-28T18:29:34;1.70;99.90
26212;DHT22;13951;49.516;6.094;2023-01-28T18:32:07;1.70;99.90
26212;DHT22;13951;49.516;6.094;2023-01-28T18:34:40;1.70;99.90
26212;DHT22;13951;49.516;6.094;2023-01-28T18:37:14;1.70;99.90
26212;DHT22;13951;49.516;6.094;2023-01-28T18:39:46;1.70;99.90
26212;DHT22;13951;49.516;6.094;2023-01-28T18:42:20;1.70;99.90
26212;DHT22;13951;49.516;6.094;2023-01-28T18:44:53;1.70;99.90
26212;DHT22;13951;49.516;6.094;2023-01-28T18:47:26;1.70;99.90
26212;DHT22;13951;49.516;6.094;2023-01-28T18:49:59;1.70;99.90
26212;DHT22;13951;49.516;6.094;2023-01-28T18:52:32;1.70;99.90
26212;DHT22;13951;49.516;6.094;2023-01-28T18:55:05;1.70;99.90
26212;DHT22;13951;49.516;6.094;2023-01-28T18:57:38;1.70;99.90
26212;DHT22;13951;49.516;6.094;2023-01-28T19:00:11;1.60;99.90
26212;DHT22;13951;49.516;6.094;2023-01-28T19:02:44;1.60;99.90
26212;DHT22;13951;49.516;6.094;2023-01-28T19:05:17;1.60;99.90
26212;DHT22;13951;49.516;6.094;2023-01-28T19:07:49;1.60;99.90
26212;DHT22;13951;49.516;6.094;2023-01-28T19:10:22;1.60;99.90
26212;DHT22;13951;49.516;6.094;2023-01-28T19:12:55;1.60;99.90
26212;DHT22;13951;49.516;6.094;2023-01-28T19:15:28;1.60;99.90
26212;DHT22;13951;49.516;6.094;2023-01-28T19:18:02;1.60;99.90
26212;DHT22;13951;49.516;6.094;2023-01-28T19:20:35;1.50;99.90
26212;DHT22;13951;49.516;6.094;2023-01-28T19:23:08;1.50;99.90
26212;DHT22;13951;49.516;6.094;2023-01-28T19:25:41;1.50;99.90
26212;DHT22;13951;49.516;6.094;2023-01-28T19:28:14;1.50;99.90
26212;DHT22;13951;49.516;6.094;2023-01-28T19:30:47;1.50;99.90
26212;DHT22;13951;49.516;6.094;2023-01-28T19:33:19;1.40;99.90
26212;DHT22;13951;49.516;6.094;2023-01-28T19:35:59;1.40;99.90
26212;DHT22;13951;49.516;6.094;2023-01-28T19:38:32;1.40;99.90
26212;DHT22;13951;49.516;6.094;2023-01-28T19:41:05;1.30;99.90
26212;DHT22;13951;49.516;6.094;2023-01-28T19:43:38;1.40;99.90
26212;DHT22;13951;49.516;6.094;2023-01-28T19:46:14;1.40;99.90
26212;DHT22;13951;49.516;6.094;2023-01-28T19:48:47;1.40;99.90
26212;DHT22;13951;49.516;6.094;2023-01-28T19:51:21;1.40;99.90
26212;DHT22;13951;49.516;6.094;2023-01-28T19:53:54;1.30;99.90
26212;DHT22;13951;49.516;6.094;2023-01-28T19:56:27;1.40;99.90
26212;DHT22;13951;49.516;6.094;2023-01-28T19:59:01;1.30;99.90
26212;DHT22;13951;49.516;6.094;2023-01-28T20:01:34;1.30;99.90
26212;DHT22;13951;49.516;6.094;2023-01-28T20:04:08;1.20;99.90
26212;DHT22;13951;49.516;6.094;2023-01-28T20:06:40;1.20;99.90
26212;DHT22;13951;49.516;6.094;2023-01-28T20:09:15;1.10;99.90